Terminal Aerodrome Forecast
Issued by NWS Cleveland, OH

Home | Current Version | Previous Version | Graphics & Text | Print | Product List | Glossary On
Versions: 1 2 3 4 5 6 7 8 9 10 11 12 13 14 15 16 17 18 19
688
FTUS41 KCLE 171556 AAA
TAFYNG
TAF AMD
KYNG 171556Z 1716/1812 18009KT P6SM SCT070 BKN120
     FM172000 19008KT P6SM VCTS SCT025 BKN040CB
      TEMPO 1721/1801 2SM TSRA OVC020CB
     FM180100 18008KT P6SM VCTS BKN040CB
      TEMPO 1801/1803 3SM TSRA OVC025CB
     FM180400 21008KT P6SM BKN060=

USA.gov is the U.S. government's official web portal to all federal, state and local government web resources and services.